Sunday, February 14, 2016, 12:48 AM EST

KTHV, York Airport

Location: Spring Grove, PA, United States Lat: 39.917
Local Time: 12:48 AM EST ( 5:48 GMT) Lon: -76.883
Time Zone: US/Eastern Elev: 478 ft

Show me the last for .
Show Decoded

2016-02-13 23:53 METAR KTHV 140453Z AUTO 29008G17KT 10SM FEW055 M13/M22 A3038 RMK AO2 SLP300
                 T11281222 410671128 =
2016-02-13 22:53 METAR KTHV 140353Z AUTO 29013KT 10SM CLR M12/M22 A3037 RMK AO2 SLP298 T11221222
                 =
2016-02-13 21:53 METAR KTHV 140253Z AUTO 30012KT 10SM CLR M12/M22 A3037 RMK AO2 SLP297 T11171222
                 51010 =
2016-02-13 20:53 METAR KTHV 140153Z AUTO 30015G23KT 10SM BKN060 M12/M22 A3036 RMK AO2 SLP293
                 T11171217 =
2016-02-13 19:53 METAR KTHV 140053Z AUTO 29011G19KT 10SM OVC065 M11/M22 A3036 RMK AO2 SLP293
                 T11111222 =
2016-02-13 18:53 METAR KTHV 132353Z AUTO 29008KT 10SM SCT055 BKN070 M11/M20 A3034 RMK AO2 SLP286
                 T11111200 11089 21111 53028 =
2016-02-13 17:53 METAR KTHV 132253Z AUTO 30012KT 10SM BKN055 M11/M19 A3031 RMK AO2 SLP275
                 T11061194 =
2016-02-13 16:53 METAR KTHV 132153Z AUTO 33011G16KT 10SM OVC070 M10/M21 A3028 RMK AO2 PK WND
                 31027/2109 SLP263 T11001206 =
2016-02-13 15:53 METAR KTHV 132053Z AUTO 30016G23KT 10SM OVC060 M10/M21 A3026 RMK AO2 PK WND
                 30026/2006 SLP257 T11001206 53016 =
2016-02-13 14:53 METAR KTHV 131953Z AUTO 30016G25KT 10SM OVC065 M09/M21 A3024 RMK AO2 PK WND
                 32029/1919 SLP252 T10941206 =
2016-02-13 13:53 METAR KTHV 131853Z AUTO 29016G23KT 10SM FEW037 BKN049 OVC060 M09/M19 A3022 RMK
                 AO2 PK WND 30028/1819 SLP245 T10941189 =
2016-02-13 12:53 METAR KTHV 131753Z AUTO 30016G26KT 10SM OVC055 M09/M19 A3021 RMK AO2 PK WND
                 29027/1711 SLP240 T10891189 11083 21094 51010 =
2016-02-13 11:53 METAR KTHV 131653Z AUTO 29014G24KT 10SM BKN050 BKN065 M09/M19 A3020 RMK AO2 PK
                 WND 29027/1554 SLP239 T10891189 =
2016-02-13 10:53 METAR KTHV 131553Z AUTO 30016G25KT 10SM CLR M09/M19 A3020 RMK AO2 PK WND
                 30029/1507 SLP237 T10891194 =
2016-02-13 09:53 METAR KTHV 131453Z AUTO 30016G24KT 9SM CLR M09/M19 A3018 RMK AO2 PK WND
                 29026/1408 SLP230 T10941189 51028 =
2016-02-13 08:53 METAR KTHV 131353Z AUTO 29014G22KT 10SM FEW046 SCT055 M09/M19 A3015 RMK AO2
                 SLP222 T10891194 =
2016-02-13 07:53 METAR KTHV 131253Z AUTO 29010G21KT 10SM OVC055 M09/M18 A3012 RMK AO2 SLP211
                 T10891183 =
2016-02-13 06:53 METAR KTHV 131153Z AUTO 30007KT 10SM CLR M09/M19 A3009 RMK AO2 SLP201 60000
                 T10941189 11067 21106 51043 =
2016-02-13 05:53 METAR KTHV 131053Z AUTO 31014G18KT 10SM CLR M08/M17 A3006 RMK AO2 SLP188
                 T10831172 =
2016-02-13 04:53 METAR KTHV 130953Z AUTO 31013G24KT 10SM SCT034 M07/M15 A3001 RMK AO2 PK WND
                 31027/0908 UPB13E24 SLP172 P0000 T10721150 =
2016-02-13 03:53 METAR KTHV 130853Z AUTO 29009KT 10SM CLR M07/M16 A2996 RMK AO2 SNE10 SLP156
                 P0000 60000 T10721156 53008 =
2016-02-13 03:08 METAR KTHV 130808Z AUTO 28010G19KT 4SM -SN OVC033 M07/M10 A2995 RMK AO2 P0000
                 T10671100 =
2016-02-13 03:04 METAR KTHV 130804Z AUTO 28008G19KT 1 1/4SM -SN BKN026 OVC038 M07/M09 A2995 RMK
                 AO2 P0000 T10671094 =
2016-02-13 02:57 METAR KTHV 130757Z AUTO 29013G19KT 3/4SM -SN BKN022 OVC038 M07/M10 A2996 RMK AO2
                 P0000 T10721100 =
2016-02-13 02:53 METAR KTHV 130753Z AUTO 29012G19KT 1 1/2SM -SN BKN026 BKN038 M07/M11 A2995 RMK
                 AO2 SNB45 SLP153 P0000 T10721111 =
2016-02-13 02:51 METAR KTHV 130751Z AUTO 29008KT 2 1/2SM -SN BKN028 BKN038 M07/M11 A2995 RMK AO2
                 VIS 1V5 SNB45 P0000 =
2016-02-13 01:53 METAR KTHV 130653Z AUTO 27004KT 10SM CLR M09/M12 A2993 RMK AO2 SLP145 T10941122
                 =
2016-02-13 00:53 METAR KTHV 130553Z AUTO 26005KT 10SM FEW043 M07/M11 A2994 RMK AO2 SLP148 60000
                 T10721111 11067 21089 56010 =

Support USWX by starting your Amazon purchase here.